createdAt,value
2023-08-16T00:00:00.772Z,76.75
2023-08-16T00:08:06.984Z,76.84
2023-08-16T00:13:42.547Z,76.96
2023-08-16T00:19:16.807Z,77.06
2023-08-16T00:24:52.971Z,77.20
2023-08-16T00:27:59.632Z,77.22
2023-08-16T00:33:34.786Z,77.22
2023-08-16T00:39:11.799Z,77.24
2023-08-16T00:44:46.541Z,77.29
2023-08-16T00:50:22.794Z,77.53
2023-08-16T00:58:27.796Z,77.76
2023-08-16T01:04:04.358Z,77.99
2023-08-16T01:09:44.671Z,78.21
2023-08-16T01:18:36.828Z,78.58
2023-08-16T01:21:42.987Z,78.66
2023-08-16T01:24:56.602Z,78.78
2023-08-16T01:33:01.022Z,79.00
2023-08-16T01:36:07.154Z,79.00
2023-08-16T01:42:05.266Z,79.09
2023-08-16T01:45:13.243Z,79.09
2023-08-16T01:48:19.412Z,79.16
2023-08-16T01:53:55.744Z,79.23
2023-08-16T01:59:31.156Z,79.27
2023-08-16T02:05:06.231Z,79.22
2023-08-16T02:10:41.999Z,79.16
2023-08-16T02:13:48.244Z,79.13
2023-08-16T02:16:46.838Z,79.18
2023-08-16T02:22:22.646Z,79.34
2023-08-16T02:27:58.585Z,79.52
2023-08-16T02:31:02.946Z,79.58
2023-08-16T02:36:38.483Z,79.71
2023-08-16T02:42:14.545Z,79.79
2023-08-16T02:47:49.231Z,79.77
2023-08-16T02:50:55.558Z,79.77
2023-08-16T02:53:52.305Z,79.84
2023-08-16T02:59:29.610Z,79.95
2023-08-16T03:05:04.571Z,80.04
2023-08-16T03:10:38.372Z,80.14
2023-08-16T03:13:45.773Z,80.15
2023-08-16T03:21:51.982Z,80.64
2023-08-16T03:27:27.748Z,80.90
2023-08-16T03:35:32.572Z,81.22
2023-08-16T03:38:38.249Z,81.27
2023-08-16T03:44:13.940Z,81.42
2023-08-16T03:47:14.126Z,81.46
2023-08-16T03:52:50.333Z,81.71
2023-08-16T03:58:25.931Z,81.83
2023-08-16T04:04:00.297Z,82.02
2023-08-16T04:07:07.626Z,82.04
2023-08-16T04:12:44.320Z,82.14
2023-08-16T04:18:19.486Z,82.28
2023-08-16T04:21:25.551Z,82.32
2023-08-16T04:27:01.004Z,82.41
2023-08-16T04:32:37.552Z,82.49
2023-08-16T04:38:12.239Z,82.54
2023-08-16T04:43:47.993Z,82.58
2023-08-16T04:49:26.099Z,82.59
2023-08-16T04:55:01.151Z,82.62
2023-08-16T05:00:38.223Z,82.63
2023-08-16T05:08:43.889Z,82.63
2023-08-16T05:14:20.191Z,82.61
2023-08-16T05:19:56.314Z,82.63
2023-08-16T05:25:32.695Z,82.60
2023-08-16T05:31:07.359Z,82.45
2023-08-16T05:36:43.741Z,82.29
2023-08-16T05:42:20.461Z,82.23
2023-08-16T05:50:26.408Z,82.16
2023-08-16T05:53:32.195Z,82.17
2023-08-16T05:59:08.425Z,82.09
2023-08-16T06:04:43.997Z,82.06
2023-08-16T06:07:49.478Z,82.01
2023-08-16T06:13:25.057Z,81.85
2023-08-16T06:19:01.559Z,81.69
2023-08-16T06:22:07.594Z,81.61
2023-08-16T06:27:42.025Z,81.46
2023-08-16T06:30:48.848Z,81.43
2023-08-16T06:33:55.262Z,81.36
2023-08-16T06:39:29.860Z,81.13
2023-08-16T06:42:39.082Z,80.99
2023-08-16T06:45:39.502Z,80.84
2023-08-16T06:51:14.910Z,80.64
2023-08-16T06:56:51.664Z,80.20
2023-08-16T07:02:30.879Z,79.82
2023-08-16T07:08:04.891Z,79.38
2023-08-16T07:13:39.728Z,78.97
2023-08-16T07:19:17.064Z,78.50
2023-08-16T07:24:51.952Z,78.19
2023-08-16T07:30:27.616Z,77.94
2023-08-16T07:36:05.398Z,77.58
2023-08-16T07:41:40.774Z,77.11
2023-08-16T07:44:45.515Z,76.82
2023-08-16T07:50:18.863Z,76.37
2023-08-16T07:53:25.360Z,76.19
2023-08-16T07:59:00.640Z,75.77
2023-08-16T08:02:05.507Z,75.46
2023-08-16T08:07:43.119Z,75.16
2023-08-16T08:13:18.353Z,74.80
2023-08-16T08:16:22.901Z,74.64
2023-08-16T08:19:29.991Z,74.42
2023-08-16T08:22:06.434Z,74.26
2023-08-16T08:24:48.456Z,73.94
2023-08-16T08:27:55.921Z,73.68
2023-08-16T08:31:00.471Z,73.42
2023-08-16T08:34:06.408Z,73.11
2023-08-16T08:39:39.503Z,72.65
2023-08-16T08:45:15.984Z,72.10
2023-08-16T08:48:22.129Z,71.99
2023-08-16T08:54:00.594Z,71.59
2023-08-16T08:59:34.856Z,71.11
2023-08-16T09:05:09.393Z,70.60
2023-08-16T09:10:45.637Z,70.16
2023-08-16T09:16:20.872Z,69.56
2023-08-16T09:21:56.422Z,69.09
2023-08-16T09:27:31.056Z,68.81
2023-08-16T09:33:10.060Z,68.33
2023-08-16T09:36:15.618Z,68.22
2023-08-16T09:39:24.716Z,67.88
2023-08-16T09:42:30.274Z,67.48
2023-08-16T09:45:50.518Z,67.29
2023-08-16T09:55:15.545Z,66.53
2023-08-16T09:58:24.510Z,66.26
2023-08-16T10:07:14.556Z,65.58
2023-08-16T10:10:00.898Z,65.40
2023-08-16T10:13:06.824Z,65.31
2023-08-16T10:18:42.447Z,64.61
2023-08-16T10:21:53.035Z,64.31
2023-08-16T10:25:01.610Z,64.09
2023-08-16T10:28:10.920Z,63.94
2023-08-16T10:31:18.034Z,63.65
2023-08-16T10:36:54.728Z,63.37
2023-08-16T10:46:25.233Z,62.72
2023-08-16T10:49:32.708Z,62.48
2023-08-16T10:52:46.219Z,62.36
2023-08-16T10:55:53.233Z,62.19
2023-08-16T10:59:03.811Z,62.02
2023-08-16T11:04:39.342Z,61.56
2023-08-16T11:07:45.372Z,61.45
2023-08-16T11:10:54.454Z,61.35
2023-08-16T11:16:32.103Z,60.85
2023-08-16T11:24:39.390Z,60.32
2023-08-16T11:30:15.562Z,59.71
2023-08-16T11:35:49.954Z,59.53
2023-08-16T11:38:56.364Z,59.23
2023-08-16T11:44:35.096Z,58.83
2023-08-16T11:47:31.935Z,58.68
2023-08-16T11:50:38.842Z,58.43
2023-08-16T11:56:18.210Z,58.06
2023-08-16T11:59:23.850Z,57.88
2023-08-16T12:02:31.378Z,57.45
2023-08-16T12:05:41.860Z,57.54
2023-08-16T12:08:49.442Z,57.17
2023-08-16T12:11:54.948Z,56.81
2023-08-16T12:19:58.940Z,56.25
2023-08-16T12:25:41.107Z,55.63
2023-08-16T12:28:50.077Z,55.52
2023-08-16T12:31:58.086Z,55.64
2023-08-16T12:35:05.318Z,55.70
2023-08-16T12:38:15.951Z,55.32
2023-08-16T12:41:24.110Z,55.32
2023-08-16T12:44:42.784Z,55.50
2023-08-16T12:47:49.871Z,55.28
2023-08-16T12:54:15.953Z,55.09
2023-08-16T12:57:37.213Z,55.09
2023-08-16T13:03:31.105Z,54.93
2023-08-16T13:06:09.051Z,54.93
2023-08-16T13:11:55.235Z,54.62
2023-08-16T13:15:06.522Z,54.22
2023-08-16T13:28:45.036Z,54.00
2023-08-16T13:37:26.970Z,54.05
2023-08-16T13:43:26.183Z,53.74
2023-08-16T13:48:59.514Z,53.48
2023-08-16T13:54:35.267Z,53.50
2023-08-16T13:57:42.302Z,53.30
2023-08-16T14:03:18.305Z,53.39
2023-08-16T14:08:53.522Z,53.41
2023-08-16T14:14:29.059Z,53.47
2023-08-16T14:20:04.013Z,53.31
2023-08-16T14:25:38.463Z,53.07
2023-08-16T14:31:14.779Z,53.51
2023-08-16T14:39:20.937Z,53.14
2023-08-16T14:44:56.833Z,53.25
2023-08-16T14:50:32.839Z,53.37
2023-08-16T14:56:08.817Z,53.51
2023-08-16T15:01:45.600Z,53.62
2023-08-16T15:07:20.369Z,53.76
2023-08-16T15:12:55.894Z,53.77
2023-08-16T15:16:02.942Z,53.82
2023-08-16T15:21:38.132Z,53.99
2023-08-16T15:24:45.410Z,54.04
2023-08-16T15:27:50.866Z,54.14
2023-08-16T15:30:59.113Z,54.24
2023-08-16T15:34:05.863Z,54.32
2023-08-16T15:37:13.511Z,54.39
2023-08-16T15:40:20.326Z,54.41
2023-08-16T15:45:53.548Z,54.49
2023-08-16T15:48:59.603Z,54.61
2023-08-16T15:54:34.479Z,54.54
2023-08-16T16:00:12.061Z,54.67
2023-08-16T16:05:46.831Z,54.68
2023-08-16T16:11:22.152Z,54.81
2023-08-16T16:17:01.274Z,54.98
2023-08-16T16:25:04.905Z,55.30
2023-08-16T16:28:10.388Z,55.34
2023-08-16T16:33:41.808Z,55.53
2023-08-16T16:36:47.386Z,55.56
2023-08-16T16:42:22.030Z,55.70
2023-08-16T16:47:58.233Z,55.84
2023-08-16T16:53:33.022Z,56.00
2023-08-16T16:56:38.763Z,56.08
2023-08-16T17:02:12.755Z,56.33
2023-08-16T17:07:48.520Z,56.52
2023-08-16T17:10:55.325Z,56.53
2023-08-16T17:18:59.196Z,56.88
2023-08-16T17:24:33.078Z,57.19
2023-08-16T17:27:38.395Z,57.30
2023-08-16T17:33:14.609Z,57.58
2023-08-16T17:41:19.983Z,57.99
2023-08-16T17:46:55.092Z,58.28
2023-08-16T17:52:30.454Z,58.58
2023-08-16T17:58:05.800Z,58.82
2023-08-16T18:03:41.596Z,59.07
2023-08-16T18:09:16.901Z,59.33
2023-08-16T18:14:55.749Z,59.64
2023-08-16T18:20:32.033Z,59.96
2023-08-16T18:26:08.269Z,60.21
2023-08-16T18:31:43.805Z,60.48
2023-08-16T18:37:19.435Z,60.78
2023-08-16T18:42:55.322Z,61.01
2023-08-16T18:48:32.018Z,61.23
2023-08-16T18:56:39.662Z,61.58
2023-08-16T19:02:15.819Z,61.84
2023-08-16T19:05:22.628Z,61.94
2023-08-16T19:10:54.798Z,62.23
2023-08-16T19:16:30.982Z,62.45
2023-08-16T19:22:07.469Z,62.64
2023-08-16T19:30:13.653Z,62.93
2023-08-16T19:33:21.234Z,63.01
2023-08-16T19:41:26.237Z,63.27
2023-08-16T19:44:32.597Z,63.38
2023-08-16T19:50:08.366Z,63.64
2023-08-16T19:55:44.263Z,63.84
2023-08-16T20:01:18.505Z,64.03
2023-08-16T20:06:55.338Z,64.20
2023-08-16T20:12:31.035Z,64.39
2023-08-16T20:18:06.489Z,64.56
2023-08-16T20:23:42.797Z,64.77
2023-08-16T20:31:49.388Z,65.05
2023-08-16T20:37:24.570Z,65.23
2023-08-16T20:45:29.515Z,65.52
2023-08-16T20:51:07.466Z,65.69
2023-08-16T20:56:42.316Z,65.89
2023-08-16T21:02:17.945Z,66.08
2023-08-16T21:05:25.147Z,66.13
2023-08-16T21:08:23.328Z,66.17
2023-08-16T21:13:58.987Z,66.33
2023-08-16T21:19:34.961Z,66.56
2023-08-16T21:25:10.750Z,66.76
2023-08-16T21:30:45.481Z,66.92
2023-08-16T21:36:20.910Z,66.97
2023-08-16T21:41:56.711Z,67.10
2023-08-16T21:45:02.373Z,67.11
2023-08-16T21:50:38.034Z,67.27
2023-08-16T21:56:12.266Z,67.50
2023-08-16T21:59:18.131Z,67.57
2023-08-16T22:04:54.809Z,67.85
2023-08-16T22:07:52.404Z,67.90
2023-08-16T22:10:57.439Z,67.97
2023-08-16T22:16:34.567Z,68.18
2023-08-16T22:22:11.328Z,68.32
2023-08-16T22:30:15.241Z,68.51
2023-08-16T22:33:21.393Z,68.60
2023-08-16T22:38:58.512Z,68.70
2023-08-16T22:44:34.838Z,68.86
2023-08-16T22:50:11.185Z,69.02
2023-08-16T22:55:46.348Z,69.21
2023-08-16T23:01:22.626Z,69.38
2023-08-16T23:06:57.979Z,69.53
2023-08-16T23:10:03.540Z,69.63
2023-08-16T23:15:39.013Z,69.73
2023-08-16T23:21:14.259Z,69.89
2023-08-16T23:29:19.125Z,70.11
2023-08-16T23:34:54.685Z,70.31
2023-08-16T23:38:00.445Z,70.32
2023-08-16T23:43:32.211Z,70.52
2023-08-16T23:49:08.191Z,70.60
2023-08-16T23:54:45.711Z,70.68
